Map

Track Data

SID SEASON NUMBER BASIN SUBBASIN NAME ISO_TIME NATURE LAT LON WMO_WIND WMO_PRES WMO_AGENCY TRACK_TYPE DIST2LAND LANDFALL IFLAG USA_AGENCY USA_ATCF_ID USA_LAT USA_LON USA_RECORD USA_STATUS USA_WIND USA_PRES USA_SSHS USA_R34_NE USA_R34_SE USA_R34_SW USA_R34_NW USA_R50_NE USA_R50_SE USA_R50_SW USA_R50_NW USA_R64_NE USA_R64_SE USA_R64_SW USA_R64_NW USA_POCI USA_ROCI USA_RMW USA_EYE TOKYO_LAT TOKYO_LON TOKYO_GRADE TOKYO_WIND TOKYO_PRES TOKYO_R50_DIR TOKYO_R50_LONG TOKYO_R50_SHORT TOKYO_R30_DIR TOKYO_R30_LONG TOKYO_R30_SHORT TOKYO_LAND CMA_LAT CMA_LON CMA_CAT CMA_WIND CMA_PRES HKO_LAT HKO_LON HKO_CAT HKO_WIND HKO_PRES NEWDELHI_LAT NEWDELHI_LON NEWDELHI_GRADE NEWDELHI_WIND NEWDELHI_PRES NEWDELHI_CI NEWDELHI_DP NEWDELHI_POCI REUNION_LAT REUNION_LON REUNION_TYPE REUNION_WIND REUNION_PRES REUNION_TNUM REUNION_CI REUNION_RMW REUNION_R34_NE REUNION_R34_SE REUNION_R34_SW REUNION_R34_NW REUNION_R50_NE REUNION_R50_SE REUNION_R50_SW REUNION_R50_NW REUNION_R64_NE REUNION_R64_SE REUNION_R64_SW REUNION_R64_NW BOM_LAT BOM_LON BOM_TYPE BOM_WIND BOM_PRES BOM_TNUM BOM_CI BOM_RMW BOM_R34_NE BOM_R34_SE BOM_R34_SW BOM_R34_NW BOM_R50_NE BOM_R50_SE BOM_R50_SW BOM_R50_NW BOM_R64_NE BOM_R64_SE BOM_R64_SW BOM_R64_NW BOM_ROCI BOM_POCI BOM_EYE BOM_POS_METHOD BOM_PRES_METHOD NADI_LAT NADI_LON NADI_CAT NADI_WIND NADI_PRES WELLINGTON_LAT WELLINGTON_LON WELLINGTON_WIND WELLINGTON_PRES DS824_LAT DS824_LON DS824_STAGE DS824_WIND DS824_PRES TD9636_LAT TD9636_LON TD9636_STAGE TD9636_WIND TD9636_PRES TD9635_LAT TD9635_LON TD9635_WIND TD9635_PRES TD9635_ROCI NEUMANN_LAT NEUMANN_LON NEUMANN_CLASS NEUMANN_WIND NEUMANN_PRES MLC_LAT MLC_LON MLC_CLASS MLC_WIND MLC_PRES USA_GUST BOM_GUST BOM_GUST_PER REUNION_GUST REUNION_GUST_PER USA_SEAHGT USA_SEARAD_NE USA_SEARAD_SE USA_SEARAD_SW USA_SEARAD_NW STORM_SPEED STORM_DIR
1974017S21156 1974 7 SP EA NESSIE 1974-01-17 00:00:00 TS -21.2000 156.000 main 488 488 O________OO_O_ jtwc_sh SH161974 -21.2000 156.000 -1 -21.2000 156.000 TC 35 -21.2000 156.000 2 -21.2000 156.000 TC 20 8 27
1974017S21156 1974 7 SP EA NESSIE 1974-01-17 03:00:00 TS -20.8516 156.191 main 527 527 P________PP_P_ SH161974 -20.8525 156.185 -1 -20.8525 156.185 TC 35 -20.8515 156.213 2 -20.8500 156.183 TC 20 8 29
1974017S21156 1974 7 SP EA NESSIE 1974-01-17 06:00:00 TS -20.5006 156.410 main 576 576 O________OP_O_ jtwc_sh SH161974 -20.5000 156.400 -1 -20.5000 156.400 TC 35 -20.5023 156.440 2 -20.5000 156.400 TC 20 8 33
1974017S21156 1974 7 SP EA NESSIE 1974-01-17 09:00:00 TS -20.1467 156.679 main 630 630 P________PP_P_ SH161974 -20.1424 156.670 -1 -20.1424 156.670 TC 35 -20.1520 156.697 2 -20.1500 156.677 TC 20 9 38
1974017S21156 1974 7 SP EA NESSIE 1974-01-17 12:00:00 TS -19.8000 157.000 main 676 676 O________OO_O_ jtwc_sh SH161974 -19.8000 157.000 -1 -19.8000 157.000 TC 35 -19.8000 157.000 2 -19.8000 157.000 TC 20 9 43
1974017S21156 1974 7 SP EA NESSIE 1974-01-17 15:00:00 TS -19.4620 157.364 main 695 670 P________PP_P_ SH161974 -19.4850 157.385 -1 -19.4850 157.385 TC 35 -19.4508 157.358 2 -19.4274 157.327 TC 20 10 48
1974017S21156 1974 7 SP EA NESSIE 1974-01-17 18:00:00 TS -19.1576 157.764 main 660 627 O________OP_O_ jtwc_sh SH161974 -19.2000 157.800 -1 -19.2000 157.800 TC 35 -19.1302 157.756 2 -19.1000 157.700 TC 20 10 53
1974017S21156 1974 7 SP EA NESSIE 1974-01-17 21:00:00 TS -18.8817 158.180 main 627 593 P________PP_P_ SH161974 -18.9049 158.200 -1 -18.9049 158.200 TC 35 -18.8695 158.176 2 -18.8475 158.143 TC 20 9 60
1974017S21156 1974 7 SP EA NESSIE 1974-01-18 00:00:00 TS -18.7000 158.600 main 593 557 O________OO_O_ jtwc_sh SH161974 -18.7000 158.600 -1 -18.7000 158.600 TC 35 -18.7000 158.600 2 -18.7000 158.600 TC 20 8 73
1974017S21156 1974 7 SP EA NESSIE 1974-01-18 03:00:00 TS -18.6454 159.000 main 557 514 P________PP_P_ SH161974 -18.6474 159.000 -1 -18.6474 159.000 TC 35 -18.6318 158.991 2 -18.6549 159.007 TC 20 8 89
1974017S21156 1974 7 SP EA NESSIE 1974-01-18 06:00:00 TS -18.6892 159.396 main 514 470 O________OP_O_ jtwc_sh SH161974 -18.7000 159.400 -1 -18.7000 159.400 TC 35 -18.6570 159.384 2 -18.7000 159.400 TC 20 8 99
1974017S21156 1974 7 SP EA NESSIE 1974-01-18 09:00:00 TS -18.7696 159.794 main 470 427 P________PP_P_ SH161974 -18.7774 159.800 -1 -18.7774 159.800 TC 35 -18.7537 159.785 2 -18.7699 159.793 TC 20 8 105
1974017S21156 1974 7 SP MM NESSIE 1974-01-18 12:00:00 TS -18.9000 160.200 main 427 384 O________OO_O_ jtwc_sh SH161974 -18.9000 160.200 -1 -18.9000 160.200 TC 35 -18.9000 160.200 2 -18.9000 160.200 TC 20 8 109
1974017S21156 1974 7 SP MM NESSIE 1974-01-18 15:00:00 TS -19.0307 160.585 main 384 337 P________PP_P_ SH161974 -19.0273 160.585 -1 -19.0273 160.585 TC 35 -19.0057 160.541 2 -19.0623 160.628 TC 20 8 113
1974017S21156 1974 7 SP MM NESSIE 1974-01-18 18:00:00 TS -19.2153 161.002 main 337 289 O________OP_O_ jtwc_sh SH161974 -19.2000 161.000 -1 -19.2000 161.000 TC 35 -19.1610 160.910 2 -19.3000 161.100 TC 20 9 118
1974017S21156 1974 7 SP MM NESSIE 1974-01-18 21:00:00 TS -19.4591 161.448 main 286 216 P________PP_P_ SH161974 -19.4118 161.418 -1 -19.4118 161.418 TC 35 -19.3859 161.373 2 -19.6269 161.583 TC 20 12 120
1974017S21156 1974 7 SP MM NESSIE 1974-01-19 00:00:00 TS -19.7882 162.059 30 997 wellington main 206 116 O_______OOO_O_ jtwc_sh SH161974 -19.7000 162.000 -1 -20.0000 162.200 30 997 -19.7000 162.000 TC 35 -19.7000 162.000 2 -20.0000 162.200 TC 20 15 116
1974017S21156 1974 7 SP MM NESSIE 1974-01-19 03:00:00 TS -20.1389 162.921 main 116 23 P_______PPP_P_ SH161974 -20.0474 162.853 -1 -20.2779 162.958 30 997 -20.0474 162.853 TC 35 -20.0558 162.895 2 -20.3355 163.063 TC 22 19 114
1974017S21156 1974 7 SP MM NESSIE 1974-01-19 06:00:00 TS -20.5588 163.909 main 30 0 O_______POP_O_ jtwc_sh SH161974 -20.5000 163.900 -1 -20.6036 163.753 30 997 -20.5000 163.900 TC 35 -20.5017 163.953 2 -20.7000 164.000 TC 25 21 116
1974017S21156 1974 7 SP MM NESSIE 1974-01-19 09:00:00 TS -21.0411 164.910 main 0 0 P_______PPP_P_ SH161974 -21.0251 165.036 -1 -21.0276 164.621 30 997 -21.0251 165.036 TC 35 -21.0462 165.084 2 -21.0812 164.772 TC 25 22 120
1974017S21156 1974 7 SP MM NESSIE 1974-01-19 12:00:00 TS -21.6600 165.960 30 997 wellington main 0 0 O_______OOO_O_ jtwc_sh SH161974 -21.7000 166.200 -1 -21.6000 165.600 30 997 -21.7000 166.200 TC 35 -21.7000 166.200 2 -21.6000 165.600 TC 25 24 126
1974017S21156 1974 7 SP MM NESSIE 1974-01-19 15:00:00 TS -22.4623 167.046 main 15 15 P_______PPP_P_ SH161974 -22.5621 167.295 -1 -22.3470 166.709 32 995 -22.5621 167.295 TC 35 -22.5004 167.274 2 -22.3402 166.655 TC 25 26 130
1974017S21156 1974 7 SP MM NESSIE 1974-01-19 18:00:00 TS -23.3605 168.117 main 166 166 O_______POP_O_ jtwc_sh SH161974 -23.5000 168.300 -1 -23.2032 167.879 35 993 -23.5000 168.300 TC 35 -23.3993 168.309 2 -23.2000 167.800 TC 25 26 133
1974017S21156 1974 7 SP MM NESSIE 1974-01-19 21:00:00 TS -24.2536 169.147 main 309 309 P_______PPP_P_ SH161974 -24.3874 169.255 -1 -24.0821 169.010 37 991 -24.3874 169.255 TC 35 -24.3232 169.240 2 -24.0880 168.974 TC 27 24 135
1974017S21156 1974 7 SP MM NESSIE 1974-01-20 00:00:00 TS -25.0800 170.000 40 990 wellington main 436 436 O_______OOO_O_ jtwc_sh SH161974 -25.2000 170.000 -1 -24.9000 170.000 40 990 -25.2000 170.000 TC 35 -25.2000 170.000 2 -24.9000 170.000 TC 30 20 139
1974017S21156 1974 7 SP MM NESSIE 1974-01-20 03:00:00 TS -25.7199 170.574 main 526 526 P_______PPP_P_ SH161974 -25.8716 170.434 -1 -25.4502 170.810 40 990 -25.8716 170.434 TC 35 -25.9200 170.501 2 -25.4862 170.692 TC 32 15 144
1974017S21156 1974 7 SP MM NESSIE 1974-01-20 06:00:00 TS -26.3077 170.975 main 601 601 O_______POP_O_ jtwc_sh SH161974 -26.5000 170.700 -1 -25.9489 171.449 40 990 -26.5000 170.700 TC 35 -26.5897 170.825 2 -26.0000 171.200 TC 35 14 150
1974017S21156 1974 7 SP MM NESSIE 1974-01-20 09:00:00 TS -26.9236 171.352 main 677 677 P_______PPP_P_ SH161974 -27.1848 170.993 -1 -26.4983 171.913 40 990 -27.1848 170.993 TC 35 -27.2398 171.062 2 -26.5102 171.797 TC 35 15 155
1974017S21156 1974 7 SP MM NESSIE 1974-01-20 12:00:00 TS -27.6200 171.660 40 990 wellington main 755 683 O_______OOO_O_ jtwc_sh SH161974 -27.9000 171.300 -1 -27.2000 172.200 40 990 -27.9000 171.300 TC 35 -27.9000 171.300 2 -27.2000 172.200 TC 35 16 163
1974017S21156 1974 7 SP MM NESSIE 1974-01-20 15:00:00 TS -28.4908 171.905 main 672 570 P_______PPP_P_ SH161974 -28.6500 171.685 -1 -28.2601 172.244 40 990 -28.6500 171.685 TC 35 -28.6268 171.679 2 -28.2673 172.234 TC 35 19 168
1974017S21156 1974 7 SP MM NESSIE 1974-01-20 18:00:00 TS -29.4266 172.102 main 570 469 O_______POP_O_ jtwc_sh SH161974 -29.4000 172.100 -1 -29.4680 172.132 40 990 -29.4000 172.100 TC 35 -29.3649 172.078 2 -29.5000 172.100 TC 35 19 170
1974017S21156 1974 7 SP MM NESSIE 1974-01-20 21:00:00 TS -30.3469 172.294 main 469 368 P_______PPP_P_ SH161974 -30.1149 172.501 -1 -30.6918 172.002 40 990 -30.1149 172.501 TC 35 -30.0955 172.488 2 -30.7172 171.977 TC 32 18 168
1974017S21156 1974 7 SP MM NESSIE 1974-01-21 00:00:00 TS -31.2000 172.540 40 990 wellington main 368 289 O_______OOO_O_ jtwc_sh SH161974 -30.8000 172.900 -1 -31.8000 172.000 40 990 -30.8000 172.900 TC 35 -30.8000 172.900 2 -31.8000 172.000 TC 30 16 162
1974017S21156 1974 7 SP MM NESSIE 1974-01-21 03:00:00 TS -31.9069 172.898 main 289 224 P_______PPP_P_ SH161974 -31.4649 173.301 -1 -32.6066 172.293 37 991 -31.4649 173.301 TC 35 -31.4229 173.234 2 -32.5751 172.359 TC 27 15 154
1974017S21156 1974 7 SP MM NESSIE 1974-01-21 06:00:00 TS -32.5414 173.325 main 224 168 O_______POP_O_ jtwc_sh SH161974 -32.1000 173.700 -1 -33.2834 172.747 35 993 -32.1000 173.700 TC 35 -32.0237 173.577 2 -33.2000 172.900 TC 25 14 150
1974017S21156 1974 7 SP MM NESSIE 1974-01-21 09:00:00 TS -33.1499 173.764 main 172 141 P_______PPP_P_ SH161974 -32.6843 174.057 -1 -33.8936 173.327 32 995 -32.6843 174.057 TC 35 -32.6377 173.980 2 -33.8494 173.399 TC 25 15 147
1974017S21156 1974 7 SP MM NESSIE 1974-01-21 12:00:00 TS -33.7800 174.300 30 997 wellington main 141 113 O_______OOO_O_ jtwc_sh SH161974 -33.3000 174.500 -1 -34.5000 174.000 30 997 -33.3000 174.500 TC 35 -33.3000 174.500 2 -34.5000 174.000 TC 25 17 143
1974017S21156 1974 7 SP MM NESSIE 1974-01-21 15:00:00 TS -34.4808 174.980 main 109 105 P_______PPP_P_ SH161974 -34.0119 175.112 -1 -35.1525 174.736 30 997 -34.0119 175.112 TC 35 -34.0350 175.179 2 -35.1927 174.763 TC 22 19 140
1974017S21156 1974 7 SP MM NESSIE 1974-01-21 18:00:00 TS -35.2353 175.784 main 125 118 O_______POP_O_ jtwc_sh SH161974 -34.8000 175.900 -1 -35.8478 175.521 30 997 -34.8000 175.900 TC 35 -34.8289 175.997 2 -35.9000 175.600 TC 20 21 138
1974017S21156 1974 7 SP MM NESSIE 1974-01-21 21:00:00 TS -36.0219 176.675 main 126 95 P_______PPP_P_ SH161974 -35.6396 176.850 -1 -36.5691 176.347 30 997 -35.6396 176.850 TC 35 -35.6582 176.917 2 -36.6031 176.410 TC 17 22 137
1974017S21156 1974 7 SP MM NESSIE 1974-01-22 00:00:00 TS -36.8200 177.620 30 997 wellington main 95 O_______OOO_O_ jtwc_sh SH161974 -36.5000 177.900 -1 -37.3000 177.200 30 997 -36.5000 177.900 TC 35 -36.5000 177.900 2 -37.3000 177.200 TC 15 22 137

Digital Typhoon Data and Search

About IBTrACS Database

This database is a web-friendly format of International Best Track Archive for Climate Stewardship (IBTrACS), a global best track data archive curated by NOAA dating back to 1842.

Updated: 2021-11-26